sensor_id;sensor_type;location;lat;lon;timestamp;temperature;humidity
19930;DHT22;10127;47.780;9.606;2022-09-11T00:00:58;16.10;99.90
19930;DHT22;10127;47.780;9.606;2022-09-11T00:03:24;16.10;99.90
19930;DHT22;10127;47.780;9.606;2022-09-11T00:05:50;16.10;99.90
19930;DHT22;10127;47.780;9.606;2022-09-11T00:08:17;16.10;99.90
19930;DHT22;10127;47.780;9.606;2022-09-11T00:10:44;16.10;99.90
19930;DHT22;10127;47.780;9.606;2022-09-11T00:13:15;16.10;99.90
19930;DHT22;10127;47.780;9.606;2022-09-11T00:15:43;16.10;99.90
19930;DHT22;10127;47.780;9.606;2022-09-11T00:18:14;16.10;99.90
19930;DHT22;10127;47.780;9.606;2022-09-11T00:20:47;16.10;99.90
19930;DHT22;10127;47.780;9.606;2022-09-11T00:23:14;16.10;99.90
19930;DHT22;10127;47.780;9.606;2022-09-11T00:25:45;16.20;99.90
19930;DHT22;10127;47.780;9.606;2022-09-11T00:28:12;16.20;99.90
19930;DHT22;10127;47.780;9.606;2022-09-11T00:30:41;16.10;99.90
19930;DHT22;10127;47.780;9.606;2022-09-11T00:33:09;16.10;99.90
19930;DHT22;10127;47.780;9.606;2022-09-11T00:35:35;16.10;99.90
19930;DHT22;10127;47.780;9.606;2022-09-11T00:38:00;16.10;99.90
19930;DHT22;10127;47.780;9.606;2022-09-11T00:40:26;16.10;99.90
19930;DHT22;10127;47.780;9.606;2022-09-11T00:42:52;16.10;99.90
19930;DHT22;10127;47.780;9.606;2022-09-11T00:45:24;16.10;99.90
19930;DHT22;10127;47.780;9.606;2022-09-11T00:47:51;16.10;99.90
19930;DHT22;10127;47.780;9.606;2022-09-11T00:50:21;16.00;99.90
19930;DHT22;10127;47.780;9.606;2022-09-11T00:52:54;16.00;99.90
19930;DHT22;10127;47.780;9.606;2022-09-11T00:55:24;16.00;99.90
19930;DHT22;10127;47.780;9.606;2022-09-11T00:57:56;15.90;99.90
19930;DHT22;10127;47.780;9.606;2022-09-11T01:00:23;16.00;99.90
19930;DHT22;10127;47.780;9.606;2022-09-11T01:02:50;16.00;99.90
19930;DHT22;10127;47.780;9.606;2022-09-11T01:05:17;16.00;99.90
19930;DHT22;10127;47.780;9.606;2022-09-11T01:07:45;16.00;99.90
19930;DHT22;10127;47.780;9.606;2022-09-11T01:10:11;16.00;99.90
19930;DHT22;10127;47.780;9.606;2022-09-11T01:13:21;16.00;99.90
19930;DHT22;10127;47.780;9.606;2022-09-11T01:29:55;16.00;99.90
19930;DHT22;10127;47.780;9.606;2022-09-11T01:35:20;15.90;99.90
19930;DHT22;10127;47.780;9.606;2022-09-11T01:38:00;16.00;99.90
19930;DHT22;10127;47.780;9.606;2022-09-11T01:40:33;16.00;99.90
19930;DHT22;10127;47.780;9.606;2022-09-11T01:43:09;15.90;99.90
19930;DHT22;10127;47.780;9.606;2022-09-11T01:45:40;15.90;99.90
19930;DHT22;10127;47.780;9.606;2022-09-11T01:48:07;15.90;99.90
19930;DHT22;10127;47.780;9.606;2022-09-11T01:50:36;15.80;99.90
19930;DHT22;10127;47.780;9.606;2022-09-11T01:53:05;15.80;99.90
19930;DHT22;10127;47.780;9.606;2022-09-11T01:55:44;15.80;99.90
19930;DHT22;10127;47.780;9.606;2022-09-11T01:58:14;15.80;99.90
19930;DHT22;10127;47.780;9.606;2022-09-11T02:00:45;15.80;99.90
19930;DHT22;10127;47.780;9.606;2022-09-11T02:06:05;15.90;99.90
19930;DHT22;10127;47.780;9.606;2022-09-11T02:08:52;15.90;99.90
19930;DHT22;10127;47.780;9.606;2022-09-11T02:11:18;16.00;99.90
19930;DHT22;10127;47.780;9.606;2022-09-11T02:14:39;16.00;99.90
19930;DHT22;10127;47.780;9.606;2022-09-11T02:19:25;16.10;99.90
19930;DHT22;10127;47.780;9.606;2022-09-11T02:21:51;16.10;99.90
19930;DHT22;10127;47.780;9.606;2022-09-11T02:24:19;16.00;99.90
19930;DHT22;10127;47.780;9.606;2022-09-11T02:26:59;16.00;99.90
19930;DHT22;10127;47.780;9.606;2022-09-11T02:29:25;15.90;99.90
19930;DHT22;10127;47.780;9.606;2022-09-11T02:31:52;15.90;99.90
19930;DHT22;10127;47.780;9.606;2022-09-11T02:34:23;15.90;99.90
19930;DHT22;10127;47.780;9.606;2022-09-11T02:37:34;15.90;99.90
19930;DHT22;10127;47.780;9.606;2022-09-11T02:40:03;15.90;99.90
19930;DHT22;10127;47.780;9.606;2022-09-11T02:42:49;15.90;99.90
19930;DHT22;10127;47.780;9.606;2022-09-11T02:45:27;15.90;99.90
19930;DHT22;10127;47.780;9.606;2022-09-11T03:11:26;15.90;99.90
19930;DHT22;10127;47.780;9.606;2022-09-11T03:13:52;15.80;99.90
19930;DHT22;10127;47.780;9.606;2022-09-11T03:16:18;15.80;99.90
19930;DHT22;10127;47.780;9.606;2022-09-11T03:18:44;15.80;99.90
19930;DHT22;10127;47.780;9.606;2022-09-11T03:21:10;15.80;99.90
19930;DHT22;10127;47.780;9.606;2022-09-11T03:23:36;15.80;99.90
19930;DHT22;10127;47.780;9.606;2022-09-11T03:26:02;15.90;99.90
19930;DHT22;10127;47.780;9.606;2022-09-11T03:28:27;15.90;99.90
19930;DHT22;10127;47.780;9.606;2022-09-11T03:30:55;15.90;99.90
19930;DHT22;10127;47.780;9.606;2022-09-11T03:33:21;15.90;99.90
19930;DHT22;10127;47.780;9.606;2022-09-11T03:35:47;15.90;99.90
19930;DHT22;10127;47.780;9.606;2022-09-11T03:38:13;15.80;99.90
19930;DHT22;10127;47.780;9.606;2022-09-11T03:40:41;15.90;99.90
19930;DHT22;10127;47.780;9.606;2022-09-11T03:43:07;15.90;99.90
19930;DHT22;10127;47.780;9.606;2022-09-11T03:45:33;15.90;99.90
19930;DHT22;10127;47.780;9.606;2022-09-11T03:47:59;15.90;99.90
19930;DHT22;10127;47.780;9.606;2022-09-11T03:50:25;15.90;99.90
19930;DHT22;10127;47.780;9.606;2022-09-11T03:52:51;15.90;99.90
19930;DHT22;10127;47.780;9.606;2022-09-11T03:55:16;15.90;99.90
19930;DHT22;10127;47.780;9.606;2022-09-11T03:57:42;15.90;99.90
19930;DHT22;10127;47.780;9.606;2022-09-11T04:00:09;15.90;99.90
19930;DHT22;10127;47.780;9.606;2022-09-11T04:02:34;15.90;99.90
19930;DHT22;10127;47.780;9.606;2022-09-11T04:05:00;15.90;99.90
19930;DHT22;10127;47.780;9.606;2022-09-11T04:07:28;15.90;99.90
19930;DHT22;10127;47.780;9.606;2022-09-11T04:09:56;15.90;99.90
19930;DHT22;10127;47.780;9.606;2022-09-11T04:12:22;15.90;99.90
19930;DHT22;10127;47.780;9.606;2022-09-11T04:14:47;15.90;99.90
19930;DHT22;10127;47.780;9.606;2022-09-11T04:17:15;15.90;99.90
19930;DHT22;10127;47.780;9.606;2022-09-11T04:19:40;15.80;99.90
19930;DHT22;10127;47.780;9.606;2022-09-11T04:22:06;15.80;99.90
19930;DHT22;10127;47.780;9.606;2022-09-11T04:24:32;15.80;99.90
19930;DHT22;10127;47.780;9.606;2022-09-11T04:26:57;15.90;99.90
19930;DHT22;10127;47.780;9.606;2022-09-11T04:29:27;15.80;99.90
19930;DHT22;10127;47.780;9.606;2022-09-11T04:31:52;15.80;99.90
19930;DHT22;10127;47.780;9.606;2022-09-11T04:34:18;15.80;99.90
19930;DHT22;10127;47.780;9.606;2022-09-11T04:36:44;15.80;99.90
19930;DHT22;10127;47.780;9.606;2022-09-11T04:39:10;15.80;99.90
19930;DHT22;10127;47.780;9.606;2022-09-11T04:41:36;15.80;99.90
19930;DHT22;10127;47.780;9.606;2022-09-11T04:44:02;15.80;99.90
19930;DHT22;10127;47.780;9.606;2022-09-11T04:46:28;15.80;99.90
19930;DHT22;10127;47.780;9.606;2022-09-11T04:48:55;15.80;99.90
19930;DHT22;10127;47.780;9.606;2022-09-11T04:51:27;15.80;99.90
19930;DHT22;10127;47.780;9.606;2022-09-11T04:53:55;15.80;99.90
19930;DHT22;10127;47.780;9.606;2022-09-11T04:56:23;15.80;99.90
19930;DHT22;10127;47.780;9.606;2022-09-11T04:58:57;15.80;99.90
19930;DHT22;10127;47.780;9.606;2022-09-11T05:01:25;15.80;99.90
19930;DHT22;10127;47.780;9.606;2022-09-11T05:03:51;15.80;99.90
19930;DHT22;10127;47.780;9.606;2022-09-11T05:06:17;15.80;99.90
19930;DHT22;10127;47.780;9.606;2022-09-11T05:08:44;15.80;99.90
19930;DHT22;10127;47.780;9.606;2022-09-11T05:11:11;15.70;99.90
19930;DHT22;10127;47.780;9.606;2022-09-11T05:13:41;15.70;99.90
19930;DHT22;10127;47.780;9.606;2022-09-11T05:16:09;15.70;99.90
19930;DHT22;10127;47.780;9.606;2022-09-11T05:18:38;15.70;99.90
19930;DHT22;10127;47.780;9.606;2022-09-11T05:21:06;15.70;99.90
19930;DHT22;10127;47.780;9.606;2022-09-11T05:23:33;15.70;99.90
19930;DHT22;10127;47.780;9.606;2022-09-11T05:26:03;15.70;99.90
19930;DHT22;10127;47.780;9.606;2022-09-11T05:28:30;15.70;99.90
19930;DHT22;10127;47.780;9.606;2022-09-11T05:30:56;15.80;99.90
19930;DHT22;10127;47.780;9.606;2022-09-11T05:33:23;15.80;99.90
19930;DHT22;10127;47.780;9.606;2022-09-11T05:35:50;15.80;99.90
19930;DHT22;10127;47.780;9.606;2022-09-11T05:38:17;15.80;99.90
19930;DHT22;10127;47.780;9.606;2022-09-11T05:40:49;15.80;99.90
19930;DHT22;10127;47.780;9.606;2022-09-11T05:43:16;15.80;99.90
19930;DHT22;10127;47.780;9.606;2022-09-11T05:45:42;15.80;99.90
19930;DHT22;10127;47.780;9.606;2022-09-11T05:48:09;15.80;99.90
19930;DHT22;10127;47.780;9.606;2022-09-11T05:50:35;15.80;99.90
19930;DHT22;10127;47.780;9.606;2022-09-11T05:53:01;15.80;99.90
19930;DHT22;10127;47.780;9.606;2022-09-11T05:55:26;15.80;99.90
19930;DHT22;10127;47.780;9.606;2022-09-11T05:57:52;15.80;99.90
19930;DHT22;10127;47.780;9.606;2022-09-11T06:00:18;15.80;99.90
19930;DHT22;10127;47.780;9.606;2022-09-11T06:02:45;15.80;99.90
19930;DHT22;10127;47.780;9.606;2022-09-11T06:05:11;15.80;99.90
19930;DHT22;10127;47.780;9.606;2022-09-11T06:07:36;15.80;99.90
19930;DHT22;10127;47.780;9.606;2022-09-11T06:10:02;15.90;99.90
19930;DHT22;10127;47.780;9.606;2022-09-11T06:12:27;15.90;99.90
19930;DHT22;10127;47.780;9.606;2022-09-11T06:14:53;15.80;99.90
19930;DHT22;10127;47.780;9.606;2022-09-11T06:17:20;15.80;99.90
19930;DHT22;10127;47.780;9.606;2022-09-11T06:19:45;15.80;99.90
19930;DHT22;10127;47.780;9.606;2022-09-11T06:22:11;15.70;99.90
19930;DHT22;10127;47.780;9.606;2022-09-11T06:24:37;15.70;99.90
19930;DHT22;10127;47.780;9.606;2022-09-11T06:27:03;15.70;99.90
19930;DHT22;10127;47.780;9.606;2022-09-11T06:29:29;15.70;99.90
19930;DHT22;10127;47.780;9.606;2022-09-11T06:31:57;15.80;99.90
19930;DHT22;10127;47.780;9.606;2022-09-11T06:34:24;15.80;99.90
19930;DHT22;10127;47.780;9.606;2022-09-11T06:36:50;15.80;99.90
19930;DHT22;10127;47.780;9.606;2022-09-11T06:39:15;15.80;99.90
19930;DHT22;10127;47.780;9.606;2022-09-11T06:41:41;15.90;99.90
19930;DHT22;10127;47.780;9.606;2022-09-11T06:44:08;15.90;99.90
19930;DHT22;10127;47.780;9.606;2022-09-11T06:46:34;15.90;99.90
19930;DHT22;10127;47.780;9.606;2022-09-11T06:49:00;15.90;99.90
19930;DHT22;10127;47.780;9.606;2022-09-11T06:51:26;15.90;99.90
19930;DHT22;10127;47.780;9.606;2022-09-11T06:53:56;15.80;99.90
19930;DHT22;10127;47.780;9.606;2022-09-11T06:56:22;15.90;99.90
19930;DHT22;10127;47.780;9.606;2022-09-11T06:58:47;15.80;99.90
19930;DHT22;10127;47.780;9.606;2022-09-11T07:01:16;15.90;99.90
19930;DHT22;10127;47.780;9.606;2022-09-11T07:03:43;15.80;99.90
19930;DHT22;10127;47.780;9.606;2022-09-11T07:06:09;15.90;99.90
19930;DHT22;10127;47.780;9.606;2022-09-11T07:08:35;16.00;99.90
19930;DHT22;10127;47.780;9.606;2022-09-11T07:11:02;16.00;99.90
19930;DHT22;10127;47.780;9.606;2022-09-11T07:13:29;16.10;99.90
19930;DHT22;10127;47.780;9.606;2022-09-11T07:16:03;16.30;99.90
19930;DHT22;10127;47.780;9.606;2022-09-11T07:18:36;16.40;99.90
19930;DHT22;10127;47.780;9.606;2022-09-11T07:21:14;16.50;99.90
19930;DHT22;10127;47.780;9.606;2022-09-11T07:23:41;16.50;99.90
19930;DHT22;10127;47.780;9.606;2022-09-11T07:26:11;16.40;99.90
19930;DHT22;10127;47.780;9.606;2022-09-11T07:28:37;16.40;99.90
19930;DHT22;10127;47.780;9.606;2022-09-11T07:31:24;16.40;99.90
19930;DHT22;10127;47.780;9.606;2022-09-11T07:33:50;16.50;99.90
19930;DHT22;10127;47.780;9.606;2022-09-11T07:36:18;16.50;99.90
19930;DHT22;10127;47.780;9.606;2022-09-11T07:38:45;16.60;99.90
19930;DHT22;10127;47.780;9.606;2022-09-11T07:41:13;16.70;99.90
19930;DHT22;10127;47.780;9.606;2022-09-11T07:43:40;16.80;99.90
19930;DHT22;10127;47.780;9.606;2022-09-11T07:46:15;16.90;99.90
19930;DHT22;10127;47.780;9.606;2022-09-11T07:48:41;16.90;99.90
19930;DHT22;10127;47.780;9.606;2022-09-11T07:51:12;16.90;99.90
19930;DHT22;10127;47.780;9.606;2022-09-11T07:53:39;16.80;99.90
19930;DHT22;10127;47.780;9.606;2022-09-11T07:56:07;16.80;99.90
19930;DHT22;10127;47.780;9.606;2022-09-11T07:58:38;16.80;99.90
19930;DHT22;10127;47.780;9.606;2022-09-11T08:01:09;16.80;99.90
19930;DHT22;10127;47.780;9.606;2022-09-11T08:03:36;16.80;99.90
19930;DHT22;10127;47.780;9.606;2022-09-11T08:06:13;16.80;99.90
19930;DHT22;10127;47.780;9.606;2022-09-11T08:08:40;16.80;99.90
19930;DHT22;10127;47.780;9.606;2022-09-11T08:11:11;16.80;99.90
19930;DHT22;10127;47.780;9.606;2022-09-11T08:13:38;16.80;99.90
19930;DHT22;10127;47.780;9.606;2022-09-11T08:16:05;16.80;99.90
19930;DHT22;10127;47.780;9.606;2022-09-11T08:18:31;16.80;99.90
19930;DHT22;10127;47.780;9.606;2022-09-11T08:21:08;16.70;99.90
19930;DHT22;10127;47.780;9.606;2022-09-11T08:23:36;16.80;99.90
19930;DHT22;10127;47.780;9.606;2022-09-11T08:26:23;16.90;99.90
19930;DHT22;10127;47.780;9.606;2022-09-11T08:28:51;16.90;99.90
19930;DHT22;10127;47.780;9.606;2022-09-11T08:31:18;17.10;99.90
19930;DHT22;10127;47.780;9.606;2022-09-11T08:33:44;17.30;99.90
19930;DHT22;10127;47.780;9.606;2022-09-11T08:36:11;17.40;99.90
19930;DHT22;10127;47.780;9.606;2022-09-11T08:38:39;17.20;99.90
19930;DHT22;10127;47.780;9.606;2022-09-11T08:43:55;17.30;99.90
19930;DHT22;10127;47.780;9.606;2022-09-11T08:46:24;17.40;99.90
19930;DHT22;10127;47.780;9.606;2022-09-11T08:51:35;17.50;99.90
19930;DHT22;10127;47.780;9.606;2022-09-11T08:54:01;17.60;99.90
19930;DHT22;10127;47.780;9.606;2022-09-11T08:56:29;17.60;99.90
19930;DHT22;10127;47.780;9.606;2022-09-11T08:59:58;17.60;99.90
19930;DHT22;10127;47.780;9.606;2022-09-11T09:07:37;17.80;99.90
19930;DHT22;10127;47.780;9.606;2022-09-11T09:10:16;17.90;99.90
19930;DHT22;10127;47.780;9.606;2022-09-11T09:18:45;18.20;99.90
19930;DHT22;10127;47.780;9.606;2022-09-11T09:20:51;18.40;99.90
19930;DHT22;10127;47.780;9.606;2022-09-11T09:23:28;18.40;99.90
19930;DHT22;10127;47.780;9.606;2022-09-11T09:25:56;18.30;99.90
19930;DHT22;10127;47.780;9.606;2022-09-11T09:28:25;18.40;99.90
19930;DHT22;10127;47.780;9.606;2022-09-11T09:30:56;18.30;99.90
19930;DHT22;10127;47.780;9.606;2022-09-11T09:33:41;18.40;99.90
19930;DHT22;10127;47.780;9.606;2022-09-11T09:36:18;18.50;99.90
19930;DHT22;10127;47.780;9.606;2022-09-11T09:38:45;18.60;99.90
19930;DHT22;10127;47.780;9.606;2022-09-11T09:41:31;18.70;99.90
19930;DHT22;10127;47.780;9.606;2022-09-11T09:46:51;18.70;99.90
19930;DHT22;10127;47.780;9.606;2022-09-11T09:49:26;18.80;99.90
19930;DHT22;10127;47.780;9.606;2022-09-11T09:51:57;18.80;99.90
19930;DHT22;10127;47.780;9.606;2022-09-11T09:54:24;18.90;99.90
19930;DHT22;10127;47.780;9.606;2022-09-11T09:57:00;18.70;99.90
19930;DHT22;10127;47.780;9.606;2022-09-11T09:59:46;18.80;99.90
19930;DHT22;10127;47.780;9.606;2022-09-11T10:02:48;18.90;99.90
19930;DHT22;10127;47.780;9.606;2022-09-11T10:05:27;18.90;99.90
19930;DHT22;10127;47.780;9.606;2022-09-11T10:08:03;18.80;99.90
19930;DHT22;10127;47.780;9.606;2022-09-11T10:13:01;18.60;99.90
19930;DHT22;10127;47.780;9.606;2022-09-11T10:15:27;18.60;99.90
19930;DHT22;10127;47.780;9.606;2022-09-11T10:18:25;18.60;99.90
19930;DHT22;10127;47.780;9.606;2022-09-11T10:21:13;18.50;99.90
19930;DHT22;10127;47.780;9.606;2022-09-11T10:26:41;18.10;99.90
19930;DHT22;10127;47.780;9.606;2022-09-11T10:29:28;18.00;99.90
19930;DHT22;10127;47.780;9.606;2022-09-11T10:31:59;18.00;99.90
19930;DHT22;10127;47.780;9.606;2022-09-11T10:34:35;18.00;99.90
19930;DHT22;10127;47.780;9.606;2022-09-11T10:37:48;18.20;99.90
19930;DHT22;10127;47.780;9.606;2022-09-11T10:39:49;18.50;99.90
19930;DHT22;10127;47.780;9.606;2022-09-11T10:42:18;18.60;99.90
19930;DHT22;10127;47.780;9.606;2022-09-11T10:44:46;18.80;99.90
19930;DHT22;10127;47.780;9.606;2022-09-11T10:47:16;18.70;99.90
19930;DHT22;10127;47.780;9.606;2022-09-11T10:49:43;18.90;99.90
19930;DHT22;10127;47.780;9.606;2022-09-11T10:57:42;19.20;99.90
19930;DHT22;10127;47.780;9.606;2022-09-11T11:00:22;19.30;99.90
19930;DHT22;10127;47.780;9.606;2022-09-11T11:02:53;19.40;99.90
19930;DHT22;10127;47.780;9.606;2022-09-11T11:05:39;19.20;99.90
19930;DHT22;10127;47.780;9.606;2022-09-11T11:30:19;20.10;99.90
19930;DHT22;10127;47.780;9.606;2022-09-11T11:35:53;20.30;99.90
19930;DHT22;10127;47.780;9.606;2022-09-11T11:38:36;20.50;99.90
19930;DHT22;10127;47.780;9.606;2022-09-11T11:41:21;20.80;99.90
19930;DHT22;10127;47.780;9.606;2022-09-11T11:43:50;21.00;99.70
19930;DHT22;10127;47.780;9.606;2022-09-11T11:46:22;21.00;99.90
19930;DHT22;10127;47.780;9.606;2022-09-11T11:48:53;21.10;99.90
19930;DHT22;10127;47.780;9.606;2022-09-11T11:51:25;21.00;99.90
19930;DHT22;10127;47.780;9.606;2022-09-11T11:54:24;21.30;99.90
19930;DHT22;10127;47.780;9.606;2022-09-11T11:57:09;21.40;99.30
19930;DHT22;10127;47.780;9.606;2022-09-11T12:02:59;21.60;98.70
19930;DHT22;10127;47.780;9.606;2022-09-11T12:05:30;21.70;98.10
19930;DHT22;10127;47.780;9.606;2022-09-11T12:07:57;21.80;97.80
19930;DHT22;10127;47.780;9.606;2022-09-11T12:10:34;21.60;97.30
19930;DHT22;10127;47.780;9.606;2022-09-11T12:13:06;21.50;98.00
19930;DHT22;10127;47.780;9.606;2022-09-11T12:15:32;21.30;97.90
19930;DHT22;10127;47.780;9.606;2022-09-11T12:23:01;21.10;98.70
19930;DHT22;10127;47.780;9.606;2022-09-11T12:31:03;21.20;98.60
19930;DHT22;10127;47.780;9.606;2022-09-11T12:38:41;21.30;98.00
19930;DHT22;10127;47.780;9.606;2022-09-11T12:41:15;21.40;98.00
19930;DHT22;10127;47.780;9.606;2022-09-11T12:43:48;21.40;97.30
19930;DHT22;10127;47.780;9.606;2022-09-11T12:47:19;21.40;97.10
19930;DHT22;10127;47.780;9.606;2022-09-11T12:49:21;21.20;97.20
19930;DHT22;10127;47.780;9.606;2022-09-11T12:51:55;21.20;97.20
19930;DHT22;10127;47.780;9.606;2022-09-11T12:54:40;21.10;97.30
19930;DHT22;10127;47.780;9.606;2022-09-11T12:57:21;21.10;97.20
19930;DHT22;10127;47.780;9.606;2022-09-11T12:59:56;21.10;97.00
19930;DHT22;10127;47.780;9.606;2022-09-11T13:04:53;21.10;97.10
19930;DHT22;10127;47.780;9.606;2022-09-11T13:07:39;21.10;97.10
19930;DHT22;10127;47.780;9.606;2022-09-11T13:10:09;21.30;96.80
19930;DHT22;10127;47.780;9.606;2022-09-11T13:12:51;21.40;96.50
19930;DHT22;10127;47.780;9.606;2022-09-11T13:15:49;21.70;96.30
19930;DHT22;10127;47.780;9.606;2022-09-11T13:18:31;21.80;95.60
19930;DHT22;10127;47.780;9.606;2022-09-11T13:21:11;22.00;95.70
19930;DHT22;10127;47.780;9.606;2022-09-11T13:23:37;22.10;95.80
19930;DHT22;10127;47.780;9.606;2022-09-11T13:26:06;22.20;95.50
19930;DHT22;10127;47.780;9.606;2022-09-11T13:28:44;22.20;95.30
19930;DHT22;10127;47.780;9.606;2022-09-11T13:31:18;22.10;95.50
19930;DHT22;10127;47.780;9.606;2022-09-11T13:33:50;21.90;95.30
19930;DHT22;10127;47.780;9.606;2022-09-11T13:36:19;21.80;95.30
19930;DHT22;10127;47.780;9.606;2022-09-11T13:38:47;21.80;95.00
19930;DHT22;10127;47.780;9.606;2022-09-11T13:41:16;22.00;95.10
19930;DHT22;10127;47.780;9.606;2022-09-11T13:43:52;22.30;95.20
19930;DHT22;10127;47.780;9.606;2022-09-11T13:46:21;22.30;95.10
19930;DHT22;10127;47.780;9.606;2022-09-11T13:48:50;22.20;94.40
19930;DHT22;10127;47.780;9.606;2022-09-11T13:51:29;22.30;94.80
19930;DHT22;10127;47.780;9.606;2022-09-11T13:54:49;22.40;95.00
19930;DHT22;10127;47.780;9.606;2022-09-11T13:57:22;22.50;95.10
19930;DHT22;10127;47.780;9.606;2022-09-11T13:59:51;22.70;94.60
19930;DHT22;10127;47.780;9.606;2022-09-11T14:05:22;23.00;94.00
19930;DHT22;10127;47.780;9.606;2022-09-11T14:08:02;22.90;92.90
19930;DHT22;10127;47.780;9.606;2022-09-11T14:21:01;22.10;93.00
19930;DHT22;10127;47.780;9.606;2022-09-11T14:23:28;21.80;93.50
19930;DHT22;10127;47.780;9.606;2022-09-11T14:26:15;21.70;93.60
19930;DHT22;10127;47.780;9.606;2022-09-11T14:31:12;21.70;93.40
19930;DHT22;10127;47.780;9.606;2022-09-11T14:33:39;21.50;93.80
19930;DHT22;10127;47.780;9.606;2022-09-11T14:36:16;21.50;93.90
19930;DHT22;10127;47.780;9.606;2022-09-11T14:38:43;21.50;93.50
19930;DHT22;10127;47.780;9.606;2022-09-11T14:41:09;21.50;93.90
19930;DHT22;10127;47.780;9.606;2022-09-11T14:43:36;21.40;93.80
19930;DHT22;10127;47.780;9.606;2022-09-11T14:46:02;21.50;93.90
19930;DHT22;10127;47.780;9.606;2022-09-11T14:48:29;21.40;93.80
19930;DHT22;10127;47.780;9.606;2022-09-11T14:50:55;21.40;93.60
19930;DHT22;10127;47.780;9.606;2022-09-11T14:53:28;21.20;94.00
19930;DHT22;10127;47.780;9.606;2022-09-11T14:55:57;21.30;94.10
19930;DHT22;10127;47.780;9.606;2022-09-11T14:58:24;21.20;93.90
19930;DHT22;10127;47.780;9.606;2022-09-11T15:00:50;21.30;94.20
19930;DHT22;10127;47.780;9.606;2022-09-11T15:03:15;21.30;94.60
19930;DHT22;10127;47.780;9.606;2022-09-11T15:05:42;21.20;94.30
19930;DHT22;10127;47.780;9.606;2022-09-11T15:08:09;21.20;94.10
19930;DHT22;10127;47.780;9.606;2022-09-11T15:10:35;21.30;94.40
19930;DHT22;10127;47.780;9.606;2022-09-11T15:13:01;21.20;94.40
19930;DHT22;10127;47.780;9.606;2022-09-11T15:15:27;21.30;94.10
19930;DHT22;10127;47.780;9.606;2022-09-11T15:17:54;21.30;94.00
19930;DHT22;10127;47.780;9.606;2022-09-11T15:20:20;21.30;93.40
19930;DHT22;10127;47.780;9.606;2022-09-11T15:22:46;21.30;93.40
19930;DHT22;10127;47.780;9.606;2022-09-11T15:25:13;21.30;94.00
19930;DHT22;10127;47.780;9.606;2022-09-11T15:27:39;21.30;93.80
19930;DHT22;10127;47.780;9.606;2022-09-11T15:30:05;21.30;94.00
19930;DHT22;10127;47.780;9.606;2022-09-11T15:32:30;21.30;94.00
19930;DHT22;10127;47.780;9.606;2022-09-11T15:34:56;21.20;94.00
19930;DHT22;10127;47.780;9.606;2022-09-11T15:37:22;21.40;93.90
19930;DHT22;10127;47.780;9.606;2022-09-11T15:39:49;21.60;93.70
19930;DHT22;10127;47.780;9.606;2022-09-11T15:42:16;21.70;94.10
19930;DHT22;10127;47.780;9.606;2022-09-11T15:44:41;21.80;93.90
19930;DHT22;10127;47.780;9.606;2022-09-11T15:47:07;21.90;93.70
19930;DHT22;10127;47.780;9.606;2022-09-11T15:49:41;21.90;93.70
19930;DHT22;10127;47.780;9.606;2022-09-11T15:52:08;21.90;93.90
19930;DHT22;10127;47.780;9.606;2022-09-11T15:54:35;21.80;93.80
19930;DHT22;10127;47.780;9.606;2022-09-11T15:57:00;21.70;94.30
19930;DHT22;10127;47.780;9.606;2022-09-11T15:59:26;21.80;94.10
19930;DHT22;10127;47.780;9.606;2022-09-11T16:01:52;21.80;94.10
19930;DHT22;10127;47.780;9.606;2022-09-11T16:04:19;21.70;94.50
19930;DHT22;10127;47.780;9.606;2022-09-11T16:06:48;21.60;95.10
19930;DHT22;10127;47.780;9.606;2022-09-11T16:09:20;21.70;95.00
19930;DHT22;10127;47.780;9.606;2022-09-11T16:11:47;21.50;94.10
19930;DHT22;10127;47.780;9.606;2022-09-11T16:14:23;21.30;94.00
19930;DHT22;10127;47.780;9.606;2022-09-11T16:16:50;21.30;94.60
19930;DHT22;10127;47.780;9.606;2022-09-11T16:19:18;21.40;95.40
19930;DHT22;10127;47.780;9.606;2022-09-11T16:21:45;21.40;95.30
19930;DHT22;10127;47.780;9.606;2022-09-11T16:24:11;21.40;95.70
19930;DHT22;10127;47.780;9.606;2022-09-11T16:26:39;21.40;96.40
19930;DHT22;10127;47.780;9.606;2022-09-11T16:29:08;21.30;97.00
19930;DHT22;10127;47.780;9.606;2022-09-11T16:31:37;21.20;97.20
19930;DHT22;10127;47.780;9.606;2022-09-11T16:34:03;21.30;97.20
19930;DHT22;10127;47.780;9.606;2022-09-11T16:36:30;21.30;97.10
19930;DHT22;10127;47.780;9.606;2022-09-11T16:39:03;22.30;95.00
19930;DHT22;10127;47.780;9.606;2022-09-11T16:41:29;21.90;95.00
19930;DHT22;10127;47.780;9.606;2022-09-11T16:43:55;21.70;95.20
19930;DHT22;10127;47.780;9.606;2022-09-11T16:46:22;21.60;95.50
19930;DHT22;10127;47.780;9.606;2022-09-11T16:48:49;21.30;95.90
19930;DHT22;10127;47.780;9.606;2022-09-11T16:51:17;21.20;96.40
19930;DHT22;10127;47.780;9.606;2022-09-11T16:53:44;21.00;96.60
19930;DHT22;10127;47.780;9.606;2022-09-11T16:56:12;20.90;96.60
19930;DHT22;10127;47.780;9.606;2022-09-11T16:58:38;20.90;96.20
19930;DHT22;10127;47.780;9.606;2022-09-11T17:01:13;20.80;96.50
19930;DHT22;10127;47.780;9.606;2022-09-11T17:03:40;20.90;96.40
19930;DHT22;10127;47.780;9.606;2022-09-11T17:06:07;20.90;96.30
19930;DHT22;10127;47.780;9.606;2022-09-11T17:08:33;20.70;96.60
19930;DHT22;10127;47.780;9.606;2022-09-11T17:11:00;20.70;96.60
19930;DHT22;10127;47.780;9.606;2022-09-11T17:13:27;20.60;96.80
19930;DHT22;10127;47.780;9.606;2022-09-11T17:15:54;20.50;96.70
19930;DHT22;10127;47.780;9.606;2022-09-11T17:18:25;20.40;97.20
19930;DHT22;10127;47.780;9.606;2022-09-11T17:20:54;20.40;97.50
19930;DHT22;10127;47.780;9.606;2022-09-11T17:23:21;20.30;97.60
19930;DHT22;10127;47.780;9.606;2022-09-11T17:25:47;20.20;97.80
19930;DHT22;10127;47.780;9.606;2022-09-11T17:28:13;20.10;98.10
19930;DHT22;10127;47.780;9.606;2022-09-11T17:30:39;20.00;98.30
19930;DHT22;10127;47.780;9.606;2022-09-11T17:33:05;19.90;98.40
19930;DHT22;10127;47.780;9.606;2022-09-11T17:35:31;19.80;99.20
19930;DHT22;10127;47.780;9.606;2022-09-11T17:37:57;19.70;99.40
19930;DHT22;10127;47.780;9.606;2022-09-11T17:40:22;19.50;99.60
19930;DHT22;10127;47.780;9.606;2022-09-11T17:42:48;19.50;99.90
19930;DHT22;10127;47.780;9.606;2022-09-11T17:45:14;19.50;99.90
19930;DHT22;10127;47.780;9.606;2022-09-11T17:47:40;19.40;99.80
19930;DHT22;10127;47.780;9.606;2022-09-11T17:50:08;19.20;99.90
19930;DHT22;10127;47.780;9.606;2022-09-11T17:52:34;19.20;99.90
19930;DHT22;10127;47.780;9.606;2022-09-11T17:55:02;19.10;99.90
19930;DHT22;10127;47.780;9.606;2022-09-11T17:57:28;18.90;99.90
19930;DHT22;10127;47.780;9.606;2022-09-11T17:59:54;18.80;99.90
19930;DHT22;10127;47.780;9.606;2022-09-11T18:02:21;18.80;99.90
19930;DHT22;10127;47.780;9.606;2022-09-11T18:04:47;18.70;99.90
19930;DHT22;10127;47.780;9.606;2022-09-11T18:07:12;18.60;99.90